createdAt,value
2023-02-03T00:00:58.698Z,100335.03
2023-02-03T00:03:26.160Z,100352.56
2023-02-03T00:06:01.745Z,100348.19
2023-02-03T00:08:29.656Z,100340.38
2023-02-03T00:10:57.613Z,100338.81
2023-02-03T00:13:26.843Z,100334.56
2023-02-03T00:15:54.135Z,100341.41
2023-02-03T00:18:22.646Z,100335.41
2023-02-03T00:20:49.990Z,100329.03
2023-02-03T00:23:17.575Z,100333.25
2023-02-03T00:25:45.011Z,100336.66
2023-02-03T00:28:13.963Z,100337.53
2023-02-03T00:30:42.398Z,100331.41
2023-02-03T00:33:09.951Z,100329.84
2023-02-03T00:35:41.006Z,100333.09
2023-02-03T00:38:08.372Z,100334.78
2023-02-03T00:40:35.751Z,100331.38
2023-02-03T00:43:04.374Z,100330.34
2023-02-03T00:45:31.873Z,100331.13
2023-02-03T00:47:59.379Z,100325.06
2023-02-03T00:50:27.644Z,100320.78
2023-02-03T00:52:55.111Z,100319.06
2023-02-03T00:55:22.610Z,100318.19
2023-02-03T00:57:50.088Z,100318.44
2023-02-03T01:00:19.043Z,100316.75
2023-02-03T01:02:47.218Z,100318.38
2023-02-03T01:05:14.494Z,100305.53
2023-02-03T01:07:41.968Z,100313.13
2023-02-03T01:10:09.917Z,100305.38
2023-02-03T01:12:37.308Z,100302.78
2023-02-03T01:15:05.048Z,100296.75
2023-02-03T01:17:32.378Z,100303.47
2023-02-03T01:20:06.204Z,100298.19
2023-02-03T01:22:33.361Z,100303.50
2023-02-03T01:25:00.810Z,100298.13
2023-02-03T01:27:27.893Z,100299.09
2023-02-03T01:29:55.314Z,100297.03
2023-02-03T01:32:25.003Z,100289.28
2023-02-03T01:34:53.208Z,100289.16
2023-02-03T01:37:20.785Z,100276.94
2023-02-03T01:39:48.054Z,100275.03
2023-02-03T01:42:16.782Z,100282.69
2023-02-03T01:44:52.575Z,100273.16
2023-02-03T01:47:29.557Z,100275.66
2023-02-03T01:50:03.731Z,100271.25
2023-02-03T01:52:32.629Z,100268.63
2023-02-03T01:55:06.078Z,100265.25
2023-02-03T01:57:51.752Z,100247.06
2023-02-03T02:00:19.400Z,100254.38
2023-02-03T02:02:49.488Z,100255.88
2023-02-03T02:05:33.087Z,100247.94
2023-02-03T02:08:01.254Z,100243.22
2023-02-03T02:10:30.865Z,100238.69
2023-02-03T02:13:00.579Z,100225.69
2023-02-03T02:15:53.754Z,100216.16
2023-02-03T02:18:45.379Z,100205.63
2023-02-03T02:21:50.366Z,100191.84
2023-02-03T02:24:42.062Z,100187.56
2023-02-03T02:27:41.709Z,100184.09
2023-02-03T02:30:34.758Z,100176.19
2023-02-03T02:33:12.801Z,100169.38
2023-02-03T02:35:46.654Z,100177.13
2023-02-03T02:38:44.296Z,100167.50
2023-02-03T02:41:28.312Z,100165.94
2023-02-03T02:44:01.757Z,100167.63
2023-02-03T02:46:48.066Z,100174.53
2023-02-03T02:50:00.816Z,100188.38
2023-02-03T02:52:32.270Z,100188.25
2023-02-03T02:55:10.880Z,100182.91
2023-02-03T02:57:40.106Z,100192.34
2023-02-03T03:00:08.580Z,100180.59
2023-02-03T03:02:37.014Z,100175.38
2023-02-03T03:05:09.387Z,100169.34
2023-02-03T03:07:54.095Z,100183.25
2023-02-03T03:10:30.677Z,100174.53
2023-02-03T03:13:03.752Z,100163.28
2023-02-03T03:15:33.834Z,100163.31
2023-02-03T03:18:17.577Z,100163.41
2023-02-03T03:20:48.560Z,100149.59
2023-02-03T03:23:25.298Z,100146.19
2023-02-03T03:26:10.215Z,100140.94
2023-02-03T03:29:14.949Z,100136.66
2023-02-03T03:31:43.649Z,100141.91
2023-02-03T03:34:12.657Z,100131.56
2023-02-03T03:36:55.175Z,100123.78
2023-02-03T03:39:22.259Z,100121.13
2023-02-03T03:42:04.153Z,100113.31
2023-02-03T03:44:39.669Z,100109.84
2023-02-03T03:47:42.506Z,100110.66
2023-02-03T03:50:15.790Z,100103.78
2023-02-03T03:52:44.306Z,100109.00
2023-02-03T03:55:17.126Z,100099.44
2023-02-03T03:58:08.056Z,100096.84
2023-02-03T04:00:39.383Z,100091.66
2023-02-03T04:03:21.102Z,100086.41
2023-02-03T04:05:54.732Z,100086.50
2023-02-03T04:08:22.151Z,100077.94
2023-02-03T04:10:49.539Z,100069.28
2023-02-03T04:13:20.740Z,100078.84
2023-02-03T04:15:48.277Z,100070.16
2023-02-03T04:18:16.912Z,100070.28
2023-02-03T04:20:44.354Z,100074.63
2023-02-03T04:23:12.715Z,100069.47
2023-02-03T04:25:40.942Z,100067.69
2023-02-03T04:28:08.462Z,100065.97
2023-02-03T04:30:36.028Z,100063.50
2023-02-03T04:33:03.485Z,100057.44
2023-02-03T04:35:31.740Z,100049.63
2023-02-03T04:37:59.281Z,100044.44
2023-02-03T04:40:27.008Z,100030.59
2023-02-03T04:42:54.652Z,100026.28
2023-02-03T04:45:23.097Z,100021.06
2023-02-03T04:47:54.441Z,100024.56
2023-02-03T04:50:23.160Z,100015.88
2023-02-03T04:52:50.583Z,100008.97
2023-02-03T04:55:18.062Z,100009.88
2023-02-03T04:57:45.453Z,100002.13
2023-02-03T05:00:13.575Z,99988.22
2023-02-03T05:02:40.945Z,99989.91
2023-02-03T05:05:08.592Z,99989.91
2023-02-03T05:07:35.918Z,99986.41
2023-02-03T05:10:03.407Z,99987.38
2023-02-03T05:12:31.884Z,99979.59
2023-02-03T05:15:01.322Z,99968.38
2023-02-03T05:17:28.795Z,99968.41
2023-02-03T05:19:56.220Z,99957.03
2023-02-03T05:22:23.747Z,99955.38
2023-02-03T05:24:51.105Z,99952.81
2023-02-03T05:27:18.115Z,99949.31
2023-02-03T05:29:46.555Z,99942.41
2023-02-03T05:32:14.067Z,99939.81
2023-02-03T05:34:42.538Z,99925.94
2023-02-03T05:37:10.205Z,99930.22
2023-02-03T05:39:37.518Z,99917.22
2023-02-03T05:42:05.943Z,99918.91
2023-02-03T05:44:33.316Z,99924.13
2023-02-03T05:47:00.885Z,99919.78
2023-02-03T05:49:29.299Z,99915.56
2023-02-03T05:51:57.257Z,99912.94
2023-02-03T05:54:24.773Z,99910.31
2023-02-03T05:56:52.280Z,99903.34
2023-02-03T05:59:20.789Z,99900.72
2023-02-03T06:01:49.173Z,99905.09
2023-02-03T06:04:16.724Z,99908.50
2023-02-03T06:06:44.005Z,99909.41
2023-02-03T06:09:11.608Z,99908.50
2023-02-03T06:11:38.931Z,99905.03
2023-02-03T06:14:06.657Z,99900.69
2023-02-03T06:16:34.956Z,99885.09
2023-02-03T06:19:02.393Z,99886.88
2023-02-03T06:21:30.041Z,99883.38
2023-02-03T06:23:57.304Z,99884.25
2023-02-03T06:26:25.719Z,99885.13
2023-02-03T06:28:53.218Z,99885.13
2023-02-03T06:31:21.118Z,99886.00
2023-02-03T06:33:48.632Z,99878.19
2023-02-03T06:36:16.205Z,99866.97
2023-02-03T06:38:43.872Z,99856.59
2023-02-03T06:41:11.003Z,99850.56
2023-02-03T06:43:38.521Z,99850.56
2023-02-03T06:46:05.962Z,99854.03
2023-02-03T06:48:34.626Z,99849.72
2023-02-03T06:51:02.136Z,99841.91
2023-02-03T06:53:29.357Z,99852.28
2023-02-03T06:55:56.800Z,99851.38
2023-02-03T06:58:24.271Z,99843.56
2023-02-03T07:00:51.757Z,99842.72
2023-02-03T07:03:19.373Z,99841.78
2023-02-03T07:05:46.633Z,99836.56
2023-02-03T07:08:14.181Z,99833.97
2023-02-03T07:10:42.181Z,99832.19
2023-02-03T07:13:09.643Z,99827.00
2023-02-03T07:15:39.052Z,99815.72
2023-02-03T07:18:06.435Z,99815.66
2023-02-03T07:20:33.975Z,99807.03
2023-02-03T07:23:03.536Z,99806.19
2023-02-03T07:25:32.965Z,99801.03
2023-02-03T07:28:01.552Z,99788.91
2023-02-03T07:30:29.110Z,99784.63
2023-02-03T07:32:56.870Z,99773.34
2023-02-03T07:35:24.294Z,99766.38
2023-02-03T07:37:53.985Z,99762.91
2023-02-03T07:40:23.571Z,99750.84
2023-02-03T07:42:50.984Z,99750.88
2023-02-03T07:45:19.545Z,99740.50
2023-02-03T07:47:46.975Z,99740.50
2023-02-03T07:50:14.380Z,99731.84
2023-02-03T07:52:54.663Z,99726.69
2023-02-03T07:55:23.232Z,99724.97
2023-02-03T07:57:53.904Z,99724.94
2023-02-03T08:00:22.460Z,99713.69
2023-02-03T08:02:51.084Z,99707.66
2023-02-03T08:05:19.048Z,99699.84
2023-02-03T08:07:47.593Z,99685.09
2023-02-03T08:10:20.735Z,99675.56
2023-02-03T08:12:48.380Z,99670.34
2023-02-03T08:15:17.522Z,99656.50
2023-02-03T08:17:46.569Z,99635.72
2023-02-03T08:20:14.086Z,99621.00
2023-02-03T08:22:41.099Z,99608.91
2023-02-03T08:25:08.837Z,99605.47
2023-02-03T08:27:38.965Z,99570.81
2023-02-03T08:30:08.139Z,99589.84
2023-02-03T08:32:35.532Z,99617.63
2023-02-03T08:37:48.782Z,99573.44
2023-02-03T08:40:16.517Z,99543.13
2023-02-03T08:42:44.795Z,99523.22
2023-02-03T08:45:12.365Z,99511.06
2023-02-03T08:47:39.729Z,99551.81
2023-02-03T08:50:09.135Z,99569.13
2023-02-03T08:52:36.814Z,99537.94
2023-02-03T08:55:04.376Z,99536.19
2023-02-03T08:57:36.786Z,99524.06
2023-02-03T09:00:06.794Z,99528.38
2023-02-03T09:02:34.177Z,99513.66
2023-02-03T09:05:01.678Z,99522.31
2023-02-03T09:07:29.159Z,99495.44
2023-02-03T09:09:56.425Z,99487.63
2023-02-03T09:12:24.329Z,99480.66
2023-02-03T09:14:53.720Z,99474.59
2023-02-03T09:17:21.037Z,99472.00
2023-02-03T09:19:48.330Z,99464.16
2023-02-03T09:22:15.955Z,99465.91
2023-02-03T09:24:43.582Z,99452.03
2023-02-03T09:27:10.903Z,99453.81
2023-02-03T09:29:40.307Z,99445.94
2023-02-03T09:32:10.530Z,99436.38
2023-02-03T09:34:40.053Z,99441.56
2023-02-03T09:37:08.515Z,99448.47
2023-02-03T09:39:36.261Z,99432.00
2023-02-03T09:42:09.850Z,99416.41
2023-02-03T09:44:41.995Z,99413.81
2023-02-03T09:47:41.822Z,99399.06
2023-02-03T09:50:30.765Z,99396.47
2023-02-03T09:53:04.658Z,99373.03
2023-02-03T09:55:43.533Z,99371.28
2023-02-03T09:58:16.170Z,99364.31
2023-02-03T10:00:44.930Z,99373.88
2023-02-03T10:03:30.244Z,99360.00
2023-02-03T10:06:06.340Z,99355.66
2023-02-03T10:09:17.385Z,99331.31
2023-02-03T10:12:01.706Z,99326.81
2023-02-03T10:14:39.255Z,99313.78
2023-02-03T10:17:33.087Z,99303.38
2023-02-03T10:20:13.611Z,99296.34
2023-02-03T10:22:51.130Z,99292.06
2023-02-03T10:25:25.143Z,99296.34
2023-02-03T10:27:59.137Z,99277.22
2023-02-03T10:30:29.198Z,99274.63
2023-02-03T10:33:25.308Z,99265.91
2023-02-03T10:35:56.940Z,99254.50
2023-02-03T10:38:43.121Z,99232.72
2023-02-03T10:41:10.663Z,99224.88
2023-02-03T10:43:53.156Z,99219.66
2023-02-03T10:46:36.522Z,99209.13
2023-02-03T10:49:04.209Z,99202.97
2023-02-03T10:51:39.084Z,99194.28
2023-02-03T10:54:28.091Z,99184.69
2023-02-03T10:56:58.234Z,99174.16
2023-02-03T10:59:30.773Z,99169.78
2023-02-03T11:01:59.285Z,99157.63
2023-02-03T11:04:30.931Z,99154.13
2023-02-03T11:07:06.603Z,99135.06
2023-02-03T11:09:39.440Z,99132.44
2023-02-03T11:12:27.035Z,99126.34
2023-02-03T11:15:06.373Z,99118.47
2023-02-03T11:17:37.223Z,99111.50
2023-02-03T11:20:15.875Z,99102.75
2023-02-03T11:22:51.098Z,99087.94
2023-02-03T11:25:32.639Z,99076.63
2023-02-03T11:28:07.321Z,99060.09
2023-02-03T11:30:35.865Z,99060.09
2023-02-03T11:33:04.086Z,99052.22
2023-02-03T11:35:40.356Z,99044.41
2023-02-03T11:38:30.328Z,99045.25
2023-02-03T11:41:01.630Z,99041.75
2023-02-03T11:43:30.273Z,99027.81
2023-02-03T11:46:08.099Z,99019.06
2023-02-03T11:48:46.153Z,99013.84
2023-02-03T11:51:37.346Z,99001.63
2023-02-03T11:54:42.239Z,98997.28
2023-02-03T11:57:21.857Z,98997.31
2023-02-03T12:00:05.439Z,98983.38
2023-02-03T12:02:42.995Z,98986.97
2023-02-03T12:05:26.968Z,98961.91
2023-02-03T12:08:19.775Z,98958.25
2023-02-03T12:11:17.382Z,98948.53
2023-02-03T12:14:13.817Z,98927.53
2023-02-03T12:16:56.926Z,98923.72
2023-02-03T12:19:36.597Z,98914.03
2023-02-03T12:22:22.408Z,98893.91
2023-02-03T12:25:27.868Z,98897.94
2023-02-03T12:28:10.627Z,98869.25
2023-02-03T12:31:05.046Z,98858.59
2023-02-03T12:33:38.700Z,98851.66
2023-02-03T12:36:22.683Z,98845.09
2023-02-03T12:38:55.071Z,98840.72
2023-02-03T12:41:29.225Z,98842.44
2023-02-03T12:44:05.978Z,98826.53
2023-02-03T12:46:41.460Z,98812.38
2023-02-03T12:49:33.765Z,98814.94
2023-02-03T12:52:51.123Z,98817.44
2023-02-03T12:55:27.296Z,98809.47
2023-02-03T12:58:10.451Z,98788.38
2023-02-03T13:00:46.713Z,98792.75
2023-02-03T13:03:21.315Z,98779.88
2023-02-03T13:06:13.458Z,98778.06
2023-02-03T13:09:17.861Z,98761.25
2023-02-03T13:11:53.149Z,98778.81
2023-02-03T13:14:47.662Z,98758.66
2023-02-03T13:17:46.683Z,98754.06
2023-02-03T13:20:21.199Z,98747.78
2023-02-03T13:22:48.665Z,98730.38
2023-02-03T13:25:27.573Z,98745.84
2023-02-03T13:28:08.420Z,98724.72
2023-02-03T13:31:13.748Z,98730.94
2023-02-03T13:34:07.506Z,98710.81
2023-02-03T13:36:35.100Z,98702.84
2023-02-03T13:39:20.908Z,98697.44
2023-02-03T13:41:53.560Z,98687.91
2023-02-03T13:44:29.535Z,98693.06
2023-02-03T13:46:59.612Z,98690.19
2023-02-03T13:49:34.603Z,98691.91
2023-02-03T13:52:02.454Z,98683.88
2023-02-03T13:54:38.830Z,98694.03
2023-02-03T13:57:20.189Z,98668.41
2023-02-03T13:59:48.746Z,98671.94
2023-02-03T14:02:22.339Z,98657.03
2023-02-03T14:04:54.081Z,98666.66
2023-02-03T14:07:36.961Z,98668.44
2023-02-03T14:10:14.359Z,98660.94
2023-02-03T14:12:51.108Z,98679.19
2023-02-03T14:15:33.803Z,98667.88
2023-02-03T14:18:37.835Z,98672.16
2023-02-03T14:21:18.724Z,98685.56
2023-02-03T14:23:54.949Z,98704.56
2023-02-03T14:26:30.988Z,98704.50
2023-02-03T14:28:58.974Z,98728.81
2023-02-03T14:31:28.613Z,98736.56
2023-02-03T14:34:13.421Z,98735.69
2023-02-03T14:36:44.860Z,98746.66
2023-02-03T14:39:18.322Z,98737.63
2023-02-03T14:41:48.755Z,98774.47
2023-02-03T14:44:23.738Z,98747.88
2023-02-03T14:47:09.599Z,98728.44
2023-02-03T14:49:51.851Z,98757.78
2023-02-03T14:52:39.462Z,98754.63
2023-02-03T14:55:21.280Z,98750.94
2023-02-03T14:58:02.131Z,98749.50
2023-02-03T15:00:34.460Z,98756.88
2023-02-03T15:03:11.784Z,98749.50
2023-02-03T15:05:47.941Z,98768.25
2023-02-03T15:08:47.770Z,98759.63
2023-02-03T15:11:31.760Z,98765.00
2023-02-03T15:14:20.795Z,98770.09
2023-02-03T15:16:54.673Z,98755.97
2023-02-03T15:19:25.984Z,98778.16
2023-02-03T15:21:54.644Z,98785.16
2023-02-03T15:24:24.225Z,98787.84
2023-02-03T15:26:56.699Z,98795.63
2023-02-03T15:29:36.774Z,98798.31
2023-02-03T15:32:12.870Z,98808.72
2023-02-03T15:34:45.623Z,98814.06
2023-02-03T15:37:21.753Z,98815.03
2023-02-03T15:40:08.757Z,98828.75
2023-02-03T15:43:14.704Z,98811.56
2023-02-03T15:45:57.664Z,98822.66
2023-02-03T15:48:41.825Z,98816.59
2023-02-03T15:51:33.432Z,98825.66
2023-02-03T15:54:41.546Z,98830.06
2023-02-03T15:57:16.625Z,98843.25
2023-02-03T15:59:53.459Z,98827.50
2023-02-03T16:02:34.074Z,98832.03
2023-02-03T16:05:21.844Z,98837.19
2023-02-03T16:07:50.637Z,98838.63
2023-02-03T16:10:34.289Z,98830.19
2023-02-03T16:13:23.504Z,98838.88
2023-02-03T16:16:08.782Z,98837.03
2023-02-03T16:18:38.081Z,98836.13
2023-02-03T16:21:06.630Z,98835.19
2023-02-03T16:23:34.170Z,98838.81
2023-02-03T16:26:15.022Z,98840.44
2023-02-03T16:29:02.128Z,98850.78
2023-02-03T16:31:47.758Z,98855.03
2023-02-03T16:34:36.527Z,98841.97
2023-02-03T16:37:39.574Z,98850.97
2023-02-03T16:40:26.122Z,98853.38
2023-02-03T16:43:12.442Z,98857.50
2023-02-03T16:45:58.543Z,98854.09
2023-02-03T16:48:44.653Z,98863.63
2023-02-03T16:51:17.137Z,98860.41
2023-02-03T16:53:50.643Z,98860.72
2023-02-03T16:56:19.517Z,98876.88
2023-02-03T16:58:47.354Z,98881.97
2023-02-03T17:01:15.355Z,98880.63
2023-02-03T17:03:44.838Z,98882.63
2023-02-03T17:06:13.830Z,98891.91
2023-02-03T17:08:42.287Z,98899.50
2023-02-03T17:11:15.797Z,98898.09
2023-02-03T17:13:43.234Z,98897.91
2023-02-03T17:16:18.561Z,98901.09
2023-02-03T17:18:47.298Z,98911.41
2023-02-03T17:21:18.652Z,98942.03
2023-02-03T17:23:48.763Z,98931.34
2023-02-03T17:26:16.306Z,98927.91
2023-02-03T17:28:45.579Z,98904.34
2023-02-03T17:31:16.905Z,98918.34
2023-02-03T17:33:45.297Z,98920.47
2023-02-03T17:36:22.892Z,98907.59
2023-02-03T17:55:31.543Z,98956.53
2023-02-03T17:58:02.385Z,98947.97
2023-02-03T18:00:30.149Z,98932.53
2023-02-03T18:02:59.149Z,98949.19
2023-02-03T18:05:30.873Z,98959.72
2023-02-03T18:08:03.031Z,98953.63
2023-02-03T18:10:37.493Z,98960.75
2023-02-03T18:13:06.629Z,98956.53
2023-02-03T18:15:34.293Z,98940.63
2023-02-03T18:18:02.445Z,98960.59
2023-02-03T18:20:30.834Z,98957.22
2023-02-03T18:22:59.859Z,98950.22
2023-02-03T18:25:31.162Z,98959.59
2023-02-03T18:27:59.824Z,98950.91
2023-02-03T18:30:28.691Z,98957.88
2023-02-03T18:32:57.425Z,98947.38
2023-02-03T18:35:25.605Z,98943.78
2023-02-03T18:37:55.613Z,98945.53
2023-02-03T18:40:30.369Z,98947.22
2023-02-03T18:42:59.012Z,98948.97
2023-02-03T18:45:28.384Z,98941.69
2023-02-03T18:47:58.186Z,98953.25
2023-02-03T18:50:26.449Z,98934.81
2023-02-03T18:53:01.785Z,98957.50
2023-02-03T18:55:30.996Z,98963.59
2023-02-03T18:58:00.904Z,98933.72
2023-02-03T19:00:38.809Z,98948.50
2023-02-03T19:03:08.741Z,98940.53
2023-02-03T19:05:40.727Z,98935.06
2023-02-03T19:08:08.903Z,98929.63
2023-02-03T19:10:38.119Z,98947.03
2023-02-03T19:13:06.178Z,98933.88
2023-02-03T19:15:34.526Z,98947.84
2023-02-03T19:18:04.541Z,98935.59
2023-02-03T19:20:32.916Z,98942.19
2023-02-03T19:23:00.767Z,98946.44
2023-02-03T19:25:33.097Z,98933.34
2023-02-03T19:28:04.014Z,98949.31
2023-02-03T19:30:35.213Z,98951.53
2023-02-03T19:33:03.923Z,98947.00
2023-02-03T19:35:33.606Z,98960.03
2023-02-03T19:38:03.926Z,98949.38
2023-02-03T19:40:32.798Z,98934.63
2023-02-03T19:43:01.664Z,98942.41
2023-02-03T19:45:30.039Z,98945.66
2023-02-03T19:47:58.201Z,98936.88
2023-02-03T19:50:30.007Z,98940.41
2023-02-03T19:52:58.612Z,98932.13
2023-02-03T19:55:31.664Z,98942.53
2023-02-03T19:58:03.005Z,98941.69
2023-02-03T20:00:31.059Z,98938.09
2023-02-03T20:02:59.400Z,98935.59
2023-02-03T20:05:29.929Z,98947.56
2023-02-03T20:07:59.057Z,98939.78
2023-02-03T20:10:27.489Z,98929.97
2023-02-03T20:12:58.523Z,98944.09
2023-02-03T20:15:31.013Z,98914.13
2023-02-03T20:17:59.275Z,98943.88
2023-02-03T20:20:27.786Z,98932.59
2023-02-03T20:22:59.696Z,98943.25
2023-02-03T20:25:27.622Z,98950.31
2023-02-03T20:27:59.849Z,98914.63
2023-02-03T20:30:30.033Z,98944.31
2023-02-03T20:32:59.962Z,98946.09
2023-02-03T20:35:31.189Z,98956.75
2023-02-03T20:38:01.922Z,98943.78
2023-02-03T20:40:36.237Z,98950.69
2023-02-03T20:43:25.586Z,98964.66
2023-02-03T20:45:54.666Z,98946.38
2023-02-03T20:48:27.243Z,98951.69
2023-02-03T20:50:56.074Z,98953.59
2023-02-03T20:53:28.661Z,98953.53
2023-02-03T20:56:10.742Z,98922.78
2023-02-03T20:58:41.042Z,98962.81
2023-02-03T21:01:18.413Z,98956.78
2023-02-03T21:04:06.316Z,98950.75
2023-02-03T21:06:36.259Z,98955.91
2023-02-03T21:09:25.502Z,98966.41
2023-02-03T21:11:53.529Z,98948.91
2023-02-03T21:14:40.185Z,98938.38
2023-02-03T21:17:26.762Z,98941.81
2023-02-03T21:19:56.101Z,98939.91
2023-02-03T21:22:27.460Z,98963.50
2023-02-03T21:24:58.854Z,98962.72
2023-02-03T21:27:34.778Z,98945.94
2023-02-03T21:30:23.274Z,98954.81
2023-02-03T21:32:51.067Z,98948.75
2023-02-03T21:35:26.368Z,98932.19
2023-02-03T21:38:02.333Z,98925.44
2023-02-03T21:40:34.107Z,98964.66
2023-02-03T21:43:04.069Z,98957.97
2023-02-03T21:45:36.379Z,98949.56
2023-02-03T21:48:35.439Z,98936.38
2023-02-03T21:51:13.133Z,98941.50
2023-02-03T21:53:41.921Z,98949.56
2023-02-03T21:56:18.057Z,98951.00
2023-02-03T21:58:47.925Z,98951.41
2023-02-03T22:01:19.019Z,98948.44
2023-02-03T22:03:52.236Z,98950.47
2023-02-03T22:06:28.083Z,98939.22
2023-02-03T22:08:59.135Z,98951.47
2023-02-03T22:11:29.772Z,98940.22
2023-02-03T22:13:57.700Z,98938.50
2023-02-03T22:16:25.994Z,98928.56
2023-02-03T22:18:53.714Z,98936.75
2023-02-03T22:21:21.424Z,98930.50
2023-02-03T22:23:49.648Z,98921.88
2023-02-03T22:26:17.735Z,98934.84
2023-02-03T22:28:46.790Z,98947.09
2023-02-03T22:31:15.563Z,98931.72
2023-02-03T22:33:43.549Z,98960.41
2023-02-03T22:36:11.231Z,98924.44
2023-02-03T22:38:41.758Z,98939.50
2023-02-03T22:41:14.593Z,98935.03
2023-02-03T22:43:43.189Z,98943.03
2023-02-03T22:46:10.752Z,98941.28
2023-02-03T22:48:38.171Z,98929.75
2023-02-03T22:51:05.770Z,98942.13
2023-02-03T22:53:33.241Z,98929.94
2023-02-03T22:56:00.609Z,98942.91
2023-02-03T22:58:27.931Z,98941.13
2023-02-03T23:00:55.397Z,98922.09
2023-02-03T23:03:23.006Z,98952.28
2023-02-03T23:05:50.397Z,98931.47
2023-02-03T23:08:17.804Z,98921.84
2023-02-03T23:10:45.265Z,98928.19
2023-02-03T23:13:12.733Z,98920.38
2023-02-03T23:15:41.463Z,98936.25
2023-02-03T23:18:08.746Z,98929.31
2023-02-03T23:20:36.149Z,98922.25
2023-02-03T23:23:03.829Z,98928.19
2023-02-03T23:25:30.955Z,98920.38
2023-02-03T23:27:58.701Z,98917.59
2023-02-03T23:30:27.539Z,98913.47
2023-02-03T23:33:02.115Z,98910.63
2023-02-03T23:35:47.409Z,98903.56
2023-02-03T23:38:21.128Z,98906.09
2023-02-03T23:40:48.525Z,98902.72
2023-02-03T23:43:16.118Z,98901.56
2023-02-03T23:45:45.976Z,98912.94
2023-02-03T23:48:13.757Z,98890.06
2023-02-03T23:50:41.087Z,98900.72
2023-02-03T23:53:14.458Z,98902.03
2023-02-03T23:55:42.141Z,98903.84
2023-02-03T23:58:11.521Z,98898.34
